Time;durP1;ratioP1;P1;durP2;ratioP2;P2;SDS_P1;SDS_P2;PMS_P1;PMS_P2;Temp;Humidity;BMP_temperature;BMP_pressure;BME280_temperature;BME280_humidity;BME280_pressure;Samples;Min_cycle;Max_cycle;Signal;HPM_P1;HPM_P2
2023/12/09 00:00:28;;;;;;;58.60;21.93;;;;;;;;;;5053025;28;20750;-80
2023/12/09 00:02:54;;;;;;;55.67;22.37;;;;;;;;;;5053350;28;20512;-80
2023/12/09 00:05:20;;;;;;;66.63;25.63;;;;;;;;;;5053278;28;20412;-80
2023/12/09 00:07:46;;;;;;;65.53;22.60;;;;;;;;;;5053431;28;20848;-85
2023/12/09 00:10:13;;;;;;;52.47;20.40;;;;;;;;;;5053418;28;20406;-91
2023/12/09 00:12:39;;;;;;;45.80;18.30;;;;;;;;;;5054114;28;20551;-81
2023/12/09 00:15:05;;;;;;;53.53;21.93;;;;;;;;;;5035650;28;21038;-86
2023/12/09 00:17:32;;;;;;;63.00;20.50;;;;;;;;;;5053292;28;20792;-83
2023/12/09 00:19:59;;;;;;;52.13;21.57;;;;;;;;;;5035402;28;20423;-81
2023/12/09 00:22:25;;;;;;;55.47;24.33;;;;;;;;;;5053230;28;20429;-80
2023/12/09 00:24:50;;;;;;;45.40;20.40;;;;;;;;;;5053070;28;20894;-84
2023/12/09 00:27:16;;;;;;;56.93;22.17;;;;;;;;;;5011790;28;20986;-83
2023/12/09 00:29:42;;;;;;;46.67;18.50;;;;;;;;;;5053154;28;20911;-84
2023/12/09 00:32:08;;;;;;;57.73;22.43;;;;;;;;;;5053153;28;20469;-86
2023/12/09 00:34:35;;;;;;;50.07;19.80;;;;;;;;;;5053099;28;20404;-86
2023/12/09 00:37:01;;;;;;;50.57;18.47;;;;;;;;;;5053567;28;20420;-82
2023/12/09 00:39:27;;;;;;;56.50;19.60;;;;;;;;;;5053908;28;20420;-82
2023/12/09 00:41:55;;;;;;;49.87;20.67;;;;;;;;;;5053826;28;20759;-84
2023/12/09 00:44:21;;;;;;;43.57;19.40;;;;;;;;;;5054530;28;20928;-84
2023/12/09 00:46:48;;;;;;;43.40;17.50;;;;;;;;;;5054453;28;20472;-82
2023/12/09 00:49:13;;;;;;;35.30;16.43;;;;;;;;;;5054552;28;20412;-82
2023/12/09 00:51:39;;;;;;;59.30;18.50;;;;;;;;;;5053493;28;20775;-82
2023/12/09 00:54:05;;;;;;;53.70;19.83;;;;;;;;;;5053613;28;20411;-85
2023/12/09 00:56:31;;;;;;;56.83;19.13;;;;;;;;;;5035138;28;20470;-81
2023/12/09 00:58:57;;;;;;;41.17;19.27;;;;;;;;;;5053552;28;20449;-82
2023/12/09 01:01:23;;;;;;;46.97;17.70;;;;;;;;;;5052744;28;20414;-82
2023/12/09 01:03:49;;;;;;;46.50;18.70;;;;;;;;;;5052862;28;20416;-82
2023/12/09 01:06:15;;;;;;;38.53;17.53;;;;;;;;;;5034752;28;20541;-85
2023/12/09 01:08:41;;;;;;;43.70;17.93;;;;;;;;;;5052842;28;20784;-81
2023/12/09 01:11:08;;;;;;;44.83;20.97;;;;;;;;;;5052625;28;20406;-81
2023/12/09 01:13:34;;;;;;;52.03;18.83;;;;;;;;;;5056091;28;20465;-86
2023/12/09 01:15:59;;;;;;;49.90;19.00;;;;;;;;;;5056258;28;20495;-83
2023/12/09 01:18:25;;;;;;;40.30;18.57;;;;;;;;;;5055269;28;20451;-82
2023/12/09 01:20:51;;;;;;;52.30;18.63;;;;;;;;;;5046596;28;20423;-86
2023/12/09 01:23:17;;;;;;;52.03;20.33;;;;;;;;;;5043973;28;20439;-83
2023/12/09 01:25:43;;;;;;;49.77;18.43;;;;;;;;;;5052516;28;20446;-83
2023/12/09 01:28:09;;;;;;;71.63;20.20;;;;;;;;;;5028045;28;20520;-82
2023/12/09 01:30:35;;;;;;;56.00;19.13;;;;;;;;;;5053040;28;20774;-84
2023/12/09 01:33:01;;;;;;;43.03;19.80;;;;;;;;;;5055599;28;20424;-81
2023/12/09 01:35:27;;;;;;;51.40;19.83;;;;;;;;;;5055842;28;20407;-84
2023/12/09 01:37:53;;;;;;;39.23;16.63;;;;;;;;;;5055810;28;20916;-81
2023/12/09 01:40:18;;;;;;;42.47;16.73;;;;;;;;;;5055236;28;20412;-81
2023/12/09 01:42:44;;;;;;;54.43;17.47;;;;;;;;;;5037484;28;20899;-81
2023/12/09 01:45:10;;;;;;;77.07;20.70;;;;;;;;;;5055549;28;20499;-82
2023/12/09 01:47:37;;;;;;;53.60;20.60;;;;;;;;;;5055042;28;20566;-82
2023/12/09 01:50:04;;;;;;;61.00;19.07;;;;;;;;;;5055606;28;20443;-81
2023/12/09 01:52:31;;;;;;;62.67;19.43;;;;;;;;;;5055222;28;20471;-81
2023/12/09 01:54:57;;;;;;;61.00;20.97;;;;;;;;;;5055146;28;20418;-82
2023/12/09 01:57:23;;;;;;;68.40;20.43;;;;;;;;;;5055344;28;20462;-86
2023/12/09 01:59:52;;;;;;;79.30;23.40;;;;;;;;;;5037206;28;20446;-82
2023/12/09 02:02:18;;;;;;;59.60;20.00;;;;;;;;;;5055179;28;20413;-81
2023/12/09 02:04:46;;;;;;;70.60;20.90;;;;;;;;;;5054880;28;20408;-81
2023/12/09 02:07:12;;;;;;;50.73;19.40;;;;;;;;;;5054856;28;20566;-82
2023/12/09 02:09:39;;;;;;;62.20;19.87;;;;;;;;;;5054352;28;20888;-81
2023/12/09 02:12:26;;;;;;;58.57;21.33;;;;;;;;;;5054754;28;20422;-81
2023/12/09 02:15:04;;;;;;;62.43;19.87;;;;;;;;;;5036507;28;20434;-80
2023/12/09 02:17:34;;;;;;;47.83;16.73;;;;;;;;;;5054570;28;20435;-81
2023/12/09 02:20:00;;;;;;;65.03;19.13;;;;;;;;;;5053749;28;20429;-84
2023/12/09 02:22:26;;;;;;;73.30;19.17;;;;;;;;;;5053955;28;20426;-81
2023/12/09 02:24:52;;;;;;;75.67;21.17;;;;;;;;;;5054494;28;20822;-82
2023/12/09 02:27:37;;;;;;;62.97;19.70;;;;;;;;;;5011973;28;20479;-87
2023/12/09 02:30:28;;;;;;;74.33;20.40;;;;;;;;;;5055120;28;20408;-82
2023/12/09 02:32:56;;;;;;;66.13;21.30;;;;;;;;;;5037346;28;20466;-88
2023/12/09 02:35:23;;;;;;;60.17;19.77;;;;;;;;;;5055083;28;20427;-87
2023/12/09 02:37:50;;;;;;;88.07;22.03;;;;;;;;;;5055548;28;20409;-83
2023/12/09 02:40:17;;;;;;;60.53;20.83;;;;;;;;;;5055063;28;20408;-80
2023/12/09 02:42:52;;;;;;;83.50;22.00;;;;;;;;;;5054531;28;20412;-82
2023/12/09 02:45:21;;;;;;;65.70;19.23;;;;;;;;;;5063396;28;20426;-80
2023/12/09 02:47:51;;;;;;;68.27;22.60;;;;;;;;;;5054661;28;20463;-81
2023/12/09 02:50:17;;;;;;;60.63;19.00;;;;;;;;;;5035934;28;20428;-81
2023/12/09 02:52:43;;;;;;;65.63;21.03;;;;;;;;;;5036118;28;20434;-81
2023/12/09 02:55:09;;;;;;;67.87;20.83;;;;;;;;;;5053825;28;20775;-82
2023/12/09 02:57:35;;;;;;;63.67;20.43;;;;;;;;;;5054032;28;20578;-81
2023/12/09 03:00:01;;;;;;;64.33;23.67;;;;;;;;;;5054393;28;20459;-81
2023/12/09 03:02:27;;;;;;;74.77;19.27;;;;;;;;;;5036222;28;20519;-80
2023/12/09 03:04:53;;;;;;;73.33;21.60;;;;;;;;;;5054104;28;20413;-80
2023/12/09 03:07:20;;;;;;;75.63;19.67;;;;;;;;;;5053935;28;20517;-80
2023/12/09 03:09:48;;;;;;;91.87;20.40;;;;;;;;;;5053283;28;20407;-80
2023/12/09 03:12:14;;;;;;;80.17;21.50;;;;;;;;;;5054048;28;20482;-82
2023/12/09 03:14:40;;;;;;;63.87;21.17;;;;;;;;;;5053655;28;20478;-83
2023/12/09 03:17:06;;;;;;;94.50;24.43;;;;;;;;;;5035879;28;20506;-80
2023/12/09 03:19:32;;;;;;;82.40;21.33;;;;;;;;;;5054098;28;20952;-81
2023/12/09 03:21:59;;;;;;;43.10;16.67;;;;;;;;;;5053497;28;20420;-81
2023/12/09 03:24:25;;;;;;;75.60;19.10;;;;;;;;;;5053203;28;20422;-80
2023/12/09 03:26:54;;;;;;;84.80;22.17;;;;;;;;;;5053476;28;20472;-80
2023/12/09 03:29:20;;;;;;;75.07;18.37;;;;;;;;;;5053446;28;20486;-81
2023/12/09 03:31:46;;;;;;;84.83;22.00;;;;;;;;;;5053380;28;20531;-82
2023/12/09 03:34:13;;;;;;;79.43;23.57;;;;;;;;;;5052628;28;20458;-81
2023/12/09 03:36:39;;;;;;;72.17;20.93;;;;;;;;;;5053097;28;20885;-83
2023/12/09 03:39:06;;;;;;;61.87;21.30;;;;;;;;;;5053035;28;20452;-82
2023/12/09 03:41:32;;;;;;;57.00;18.70;;;;;;;;;;5053157;28;20445;-82
2023/12/09 03:43:58;;;;;;;85.50;21.20;;;;;;;;;;5053052;28;20447;-81
2023/12/09 03:46:24;;;;;;;69.73;21.43;;;;;;;;;;5053014;28;20809;-82
2023/12/09 03:48:50;;;;;;;75.60;22.20;;;;;;;;;;5053134;28;20509;-84
2023/12/09 03:51:16;;;;;;;66.00;19.77;;;;;;;;;;5053014;28;20510;-81
2023/12/09 03:53:42;;;;;;;90.13;23.03;;;;;;;;;;5053058;28;20497;-81
2023/12/09 03:56:08;;;;;;;97.90;23.63;;;;;;;;;;5052878;28;20767;-82
2023/12/09 03:58:36;;;;;;;88.90;20.90;;;;;;;;;;5053152;28;20423;-80
2023/12/09 04:01:02;;;;;;;72.53;21.97;;;;;;;;;;5052871;28;20777;-81
2023/12/09 04:03:28;;;;;;;91.73;21.27;;;;;;;;;;5052803;28;20408;-82
2023/12/09 04:05:54;;;;;;;69.43;20.23;;;;;;;;;;5052879;28;20420;-80
2023/12/09 04:08:20;;;;;;;91.67;23.40;;;;;;;;;;5052643;28;20464;-80
2023/12/09 04:10:46;;;;;;;104.90;25.10;;;;;;;;;;5051067;28;20427;-80
2023/12/09 04:13:15;;;;;;;81.53;23.47;;;;;;;;;;5052251;28;20549;-80
2023/12/09 04:15:41;;;;;;;52.37;21.07;;;;;;;;;;5052694;28;20901;-79
2023/12/09 04:18:07;;;;;;;71.40;24.93;;;;;;;;;;5052375;28;20447;-80
2023/12/09 04:20:33;;;;;;;69.53;18.33;;;;;;;;;;5052546;28;20963;-81
2023/12/09 04:22:59;;;;;;;63.03;23.40;;;;;;;;;;5052626;28;20417;-80
2023/12/09 04:25:25;;;;;;;55.23;19.37;;;;;;;;;;5052127;28;20468;-80
2023/12/09 04:27:51;;;;;;;63.97;20.70;;;;;;;;;;5052736;28;20475;-79
2023/12/09 04:30:18;;;;;;;53.67;19.87;;;;;;;;;;5052208;28;20973;-80
2023/12/09 04:32:43;;;;;;;65.00;23.87;;;;;;;;;;5052425;28;20420;-80
2023/12/09 04:35:10;;;;;;;67.60;22.67;;;;;;;;;;5052491;28;20470;-82
2023/12/09 04:37:36;;;;;;;68.00;22.27;;;;;;;;;;5052596;28;20416;-80
2023/12/09 04:40:08;;;;;;;71.77;21.93;;;;;;;;;;5052085;28;20400;-82
2023/12/09 04:42:34;;;;;;;56.30;21.80;;;;;;;;;;5034624;28;20509;-80
2023/12/09 04:45:00;;;;;;;58.43;23.33;;;;;;;;;;5052378;28;20432;-81
2023/12/09 04:47:26;;;;;;;43.00;18.13;;;;;;;;;;5056392;28;20510;-80
2023/12/09 04:49:52;;;;;;;53.10;18.53;;;;;;;;;;5056306;28;20424;-80
2023/12/09 04:52:18;;;;;;;48.10;20.63;;;;;;;;;;5056159;28;20613;-80
2023/12/09 04:54:44;;;;;;;50.70;19.87;;;;;;;;;;5055833;28;20529;-81
2023/12/09 04:57:10;;;;;;;40.20;20.20;;;;;;;;;;5056097;28;20937;-81
2023/12/09 04:59:56;;;;;;;47.77;19.57;;;;;;;;;;5038421;28;20997;-81
2023/12/09 05:02:22;;;;;;;55.30;21.70;;;;;;;;;;5040912;28;20419;-81
2023/12/09 05:04:48;;;;;;;53.23;21.93;;;;;;;;;;5055971;28;20416;-81
2023/12/09 05:07:14;;;;;;;49.87;20.60;;;;;;;;;;5055969;28;20473;-81
2023/12/09 05:09:40;;;;;;;54.03;19.30;;;;;;;;;;5055570;28;20404;-80
2023/12/09 05:12:06;;;;;;;50.33;20.03;;;;;;;;;;5055126;28;20782;-83
2023/12/09 05:14:32;;;;;;;45.57;18.17;;;;;;;;;;5037837;28;20415;-82
2023/12/09 05:17:01;;;;;;;51.30;23.37;;;;;;;;;;5055810;28;20464;-81
2023/12/09 05:19:27;;;;;;;54.30;21.03;;;;;;;;;;5055292;28;20787;-81
2023/12/09 05:21:53;;;;;;;60.00;20.70;;;;;;;;;;5037860;28;20448;-81
2023/12/09 05:24:19;;;;;;;47.37;19.13;;;;;;;;;;5054536;28;20804;-81
2023/12/09 05:26:45;;;;;;;41.67;18.43;;;;;;;;;;5037642;28;20468;-82
2023/12/09 05:29:10;;;;;;;52.90;19.10;;;;;;;;;;5055581;28;20418;-81
2023/12/09 05:31:36;;;;;;;54.20;21.70;;;;;;;;;;5055415;28;20413;-82
2023/12/09 05:34:02;;;;;;;57.40;21.93;;;;;;;;;;5015733;28;20444;-80
2023/12/09 05:36:28;;;;;;;51.60;20.63;;;;;;;;;;5055515;28;20900;-80
2023/12/09 05:38:54;;;;;;;44.37;20.23;;;;;;;;;;5055103;28;20507;-80
2023/12/09 05:41:20;;;;;;;42.33;17.93;;;;;;;;;;5055189;28;20426;-81
2023/12/09 05:43:46;;;;;;;55.23;21.17;;;;;;;;;;5055280;28;20414;-80
2023/12/09 05:46:19;;;;;;;54.93;22.20;;;;;;;;;;5055060;28;20759;-80
2023/12/09 05:48:45;;;;;;;51.57;20.03;;;;;;;;;;5055041;28;20412;-80
2023/12/09 05:51:10;;;;;;;43.90;20.40;;;;;;;;;;5036862;28;20424;-81
2023/12/09 05:53:36;;;;;;;44.40;19.30;;;;;;;;;;5054931;28;20979;-81
2023/12/09 05:56:02;;;;;;;42.17;21.77;;;;;;;;;;5036949;28;20409;-82
2023/12/09 05:58:28;;;;;;;45.57;19.70;;;;;;;;;;5053077;28;20428;-82
2023/12/09 06:00:54;;;;;;;51.10;22.70;;;;;;;;;;5054628;28;20416;-83
2023/12/09 06:03:20;;;;;;;47.90;18.60;;;;;;;;;;5055438;28;20411;-81
2023/12/09 06:05:46;;;;;;;39.93;19.27;;;;;;;;;;5037479;28;20930;-81
2023/12/09 06:08:12;;;;;;;42.87;19.90;;;;;;;;;;5054875;28;20469;-83
2023/12/09 06:10:38;;;;;;;40.57;19.73;;;;;;;;;;5054348;28;20424;-81
2023/12/09 06:13:04;;;;;;;46.87;19.60;;;;;;;;;;5054497;28;20936;-82
2023/12/09 06:15:30;;;;;;;39.63;19.00;;;;;;;;;;5054425;28;20495;-82
2023/12/09 06:17:55;;;;;;;49.53;18.23;;;;;;;;;;5054524;28;20412;-86
2023/12/09 06:20:21;;;;;;;44.33;20.67;;;;;;;;;;5054706;28;20507;-86
2023/12/09 06:22:47;;;;;;;50.27;21.17;;;;;;;;;;5036811;28;20416;-85
2023/12/09 06:25:13;;;;;;;45.33;20.03;;;;;;;;;;5053948;28;20419;-82
2023/12/09 06:27:39;;;;;;;38.97;18.50;;;;;;;;;;5054566;28;20475;-82
2023/12/09 06:30:06;;;;;;;40.00;19.00;;;;;;;;;;5054455;28;20786;-88
2023/12/09 06:32:32;;;;;;;45.63;19.80;;;;;;;;;;5054575;28;20408;-87
2023/12/09 06:34:58;;;;;;;43.60;20.23;;;;;;;;;;5014016;28;20801;-83
2023/12/09 06:37:24;;;;;;;39.00;18.90;;;;;;;;;;5054290;28;20416;-85
2023/12/09 06:39:49;;;;;;;48.00;20.37;;;;;;;;;;5053481;28;20416;-82
2023/12/09 06:42:15;;;;;;;49.93;19.33;;;;;;;;;;5053982;28;20416;-81
2023/12/09 06:44:41;;;;;;;44.77;19.30;;;;;;;;;;5054396;28;20415;-82
2023/12/09 06:47:07;;;;;;;47.47;19.23;;;;;;;;;;5053550;28;20460;-84
2023/12/09 06:49:33;;;;;;;39.00;19.90;;;;;;;;;;5054274;28;20404;-83
2023/12/09 06:51:59;;;;;;;36.27;18.40;;;;;;;;;;5054126;28;20854;-82
2023/12/09 06:54:28;;;;;;;48.70;19.60;;;;;;;;;;5053497;28;20412;-82
2023/12/09 06:56:56;;;;;;;44.30;19.40;;;;;;;;;;5052840;28;20797;-80
2023/12/09 06:59:22;;;;;;;40.97;18.47;;;;;;;;;;5053970;28;20984;-84
2023/12/09 07:01:49;;;;;;;44.10;19.63;;;;;;;;;;5053909;28;20443;-83
2023/12/09 07:04:15;;;;;;;40.43;18.30;;;;;;;;;;5036121;28;20422;-84
2023/12/09 07:06:41;;;;;;;33.63;18.73;;;;;;;;;;5053713;28;20464;-85
2023/12/09 07:09:08;;;;;;;38.73;19.00;;;;;;;;;;5052296;28;20455;-82
2023/12/09 07:11:34;;;;;;;37.07;18.37;;;;;;;;;;5035762;28;20420;-80
2023/12/09 07:14:00;;;;;;;38.00;20.10;;;;;;;;;;5034969;28;20484;-79
2023/12/09 07:16:26;;;;;;;40.17;18.60;;;;;;;;;;5035708;28;20911;-80
2023/12/09 07:18:58;;;;;;;40.30;17.40;;;;;;;;;;5053502;28;20896;-81
2023/12/09 07:21:24;;;;;;;37.07;19.37;;;;;;;;;;5035711;28;20778;-81
2023/12/09 07:23:50;;;;;;;32.37;17.90;;;;;;;;;;5053155;28;20413;-78
2023/12/09 07:26:16;;;;;;;29.53;16.83;;;;;;;;;;5053488;28;20416;-79
2023/12/09 07:28:42;;;;;;;42.67;16.60;;;;;;;;;;5036155;28;20451;-79
2023/12/09 07:31:08;;;;;;;37.93;17.07;;;;;;;;;;5060637;28;20882;-80
2023/12/09 07:33:34;;;;;;;32.00;15.90;;;;;;;;;;5056092;28;20426;-79
2023/12/09 07:36:00;;;;;;;34.53;17.30;;;;;;;;;;5053824;28;20496;-81
2023/12/09 07:38:26;;;;;;;34.27;18.17;;;;;;;;;;5054604;28;20967;-79
2023/12/09 07:40:52;;;;;;;37.97;18.97;;;;;;;;;;5053660;28;20402;-79
2023/12/09 07:43:18;;;;;;;34.97;16.30;;;;;;;;;;5035556;28;20421;-80
2023/12/09 07:45:44;;;;;;;35.17;17.97;;;;;;;;;;5052977;28;20410;-86
2023/12/09 07:48:10;;;;;;;38.90;14.20;;;;;;;;;;5052982;28;20510;-79
2023/12/09 07:50:36;;;;;;;27.03;13.87;;;;;;;;;;5052917;28;20403;-79
2023/12/09 07:53:02;;;;;;;33.53;15.90;;;;;;;;;;5052960;28;20412;-85
2023/12/09 07:55:28;;;;;;;32.27;15.90;;;;;;;;;;5052530;28;20439;-80
2023/12/09 07:57:57;;;;;;;33.37;18.13;;;;;;;;;;5053005;28;20433;-82
2023/12/09 08:00:27;;;;;;;34.27;15.60;;;;;;;;;;5052868;28;20404;-85
2023/12/09 08:02:54;;;;;;;40.37;16.97;;;;;;;;;;5050131;28;20420;-81
2023/12/09 08:05:21;;;;;;;33.60;15.73;;;;;;;;;;5052798;28;20435;-81
2023/12/09 08:07:47;;;;;;;29.70;15.90;;;;;;;;;;5052860;28;20470;-87
2023/12/09 08:10:13;;;;;;;31.90;16.70;;;;;;;;;;5052484;28;20408;-80
2023/12/09 08:12:39;;;;;;;28.13;16.10;;;;;;;;;;5052444;28;20469;-83
2023/12/09 08:15:05;;;;;;;29.43;14.67;;;;;;;;;;5052692;28;20404;-80
2023/12/09 08:17:31;;;;;;;31.77;14.30;;;;;;;;;;5052676;28;20511;-82
2023/12/09 08:19:56;;;;;;;30.10;14.23;;;;;;;;;;5052402;28;20446;-84
2023/12/09 08:22:22;;;;;;;33.87;15.07;;;;;;;;;;5034446;28;20964;-80
2023/12/09 08:24:48;;;;;;;32.57;15.80;;;;;;;;;;5052064;28;20478;-81
2023/12/09 08:27:14;;;;;;;34.70;14.80;;;;;;;;;;5052279;28;20952;-82
2023/12/09 08:29:40;;;;;;;31.23;13.53;;;;;;;;;;5052280;28;20419;-84
2023/12/09 08:32:06;;;;;;;29.77;14.73;;;;;;;;;;5052349;28;20410;-82
2023/12/09 08:34:32;;;;;;;27.30;15.90;;;;;;;;;;5052459;28;20795;-82
2023/12/09 08:36:58;;;;;;;31.20;14.20;;;;;;;;;;5059473;28;20484;-83
2023/12/09 08:39:24;;;;;;;23.27;13.20;;;;;;;;;;5034107;28;20444;-82
2023/12/09 08:41:49;;;;;;;25.57;13.77;;;;;;;;;;5052238;28;20414;-80
2023/12/09 08:44:15;;;;;;;25.03;14.33;;;;;;;;;;5052255;28;20424;-80
2023/12/09 08:46:41;;;;;;;25.10;12.60;;;;;;;;;;5052071;28;20448;-79
2023/12/09 08:49:07;;;;;;;27.80;15.27;;;;;;;;;;5052157;28;20507;-81
2023/12/09 08:51:44;;;;;;;26.30;14.83;;;;;;;;;;5052202;28;20858;-81
2023/12/09 08:54:09;;;;;;;26.53;13.00;;;;;;;;;;5051830;28;20423;-80
2023/12/09 08:56:38;;;;;;;27.90;15.07;;;;;;;;;;5052105;28;20442;-84
2023/12/09 08:59:09;;;;;;;26.87;14.73;;;;;;;;;;5052256;28;20420;-84
2023/12/09 09:01:35;;;;;;;29.53;15.47;;;;;;;;;;5052593;28;20468;-81
2023/12/09 09:04:01;;;;;;;29.63;16.60;;;;;;;;;;5067920;28;20434;-80
2023/12/09 09:06:27;;;;;;;27.10;13.77;;;;;;;;;;5052448;28;20413;-84
2023/12/09 09:08:53;;;;;;;29.30;14.33;;;;;;;;;;5052130;28;20427;-79
2023/12/09 09:11:23;;;;;;;24.37;14.47;;;;;;;;;;5052460;28;20902;-84
2023/12/09 09:13:49;;;;;;;23.97;12.27;;;;;;;;;;5052191;28;20532;-81
2023/12/09 09:16:15;;;;;;;29.50;15.07;;;;;;;;;;5052633;28;20415;-81
2023/12/09 09:18:42;;;;;;;23.03;12.50;;;;;;;;;;5068086;28;20427;-80
2023/12/09 09:21:08;;;;;;;25.80;13.60;;;;;;;;;;5068057;28;20803;-81
2023/12/09 09:23:34;;;;;;;26.63;14.77;;;;;;;;;;5068044;28;20421;-81
2023/12/09 09:26:00;;;;;;;27.07;15.87;;;;;;;;;;5052833;28;20410;-81
2023/12/09 09:28:26;;;;;;;27.77;13.23;;;;;;;;;;5068135;28;20481;-81
2023/12/09 09:30:52;;;;;;;30.80;15.57;;;;;;;;;;5053055;28;20401;-80
2023/12/09 09:33:18;;;;;;;24.70;14.50;;;;;;;;;;5054344;28;20410;-79
2023/12/09 09:35:46;;;;;;;24.60;13.77;;;;;;;;;;5071355;28;20485;-85
2023/12/09 09:38:11;;;;;;;27.60;14.67;;;;;;;;;;5055538;28;20413;-81
2023/12/09 09:40:37;;;;;;;22.93;13.90;;;;;;;;;;5056209;28;20454;-81
2023/12/09 09:43:08;;;;;;;24.97;13.37;;;;;;;;;;5055861;28;21021;-85
2023/12/09 09:45:36;;;;;;;26.60;13.90;;;;;;;;;;5055773;28;20410;-84
2023/12/09 09:48:03;;;;;;;20.90;13.67;;;;;;;;;;5056142;28;20464;-85
2023/12/09 09:50:31;;;;;;;22.17;11.30;;;;;;;;;;5055730;28;20404;-80
2023/12/09 09:52:57;;;;;;;27.20;13.90;;;;;;;;;;5055771;28;20558;-80
2023/12/09 09:55:24;;;;;;;23.17;12.80;;;;;;;;;;5055168;28;20408;-81
2023/12/09 09:57:51;;;;;;;19.87;11.00;;;;;;;;;;5055705;28;20410;-82
2023/12/09 10:00:19;;;;;;;28.73;13.80;;;;;;;;;;5071174;28;20433;-87
2023/12/09 10:02:49;;;;;;;18.23;12.10;;;;;;;;;;5056671;28;20437;-81
2023/12/09 10:05:16;;;;;;;23.13;13.10;;;;;;;;;;5057634;28;20431;-83
2023/12/09 10:07:42;;;;;;;24.90;14.00;;;;;;;;;;5055310;28;20475;-81
2023/12/09 10:10:08;;;;;;;25.60;14.00;;;;;;;;;;5055208;28;20453;-80
2023/12/09 10:12:35;;;;;;;24.47;14.17;;;;;;;;;;5055082;28;20510;-81
2023/12/09 10:15:01;;;;;;;26.20;14.00;;;;;;;;;;5055184;28;20495;-79
2023/12/09 10:17:27;;;;;;;22.10;15.23;;;;;;;;;;5055073;28;20436;-85
2023/12/09 10:19:57;;;;;;;33.20;14.90;;;;;;;;;;5069858;28;21008;-79
2023/12/09 10:22:24;;;;;;;23.90;12.70;;;;;;;;;;5070888;28;20490;-83
2023/12/09 10:24:50;;;;;;;28.30;13.43;;;;;;;;;;5054603;28;20429;-80
2023/12/09 10:27:19;;;;;;;29.30;15.27;;;;;;;;;;5055047;28;20468;-79
2023/12/09 10:29:45;;;;;;;22.13;14.40;;;;;;;;;;5055065;28;20433;-81
2023/12/09 10:32:12;;;;;;;28.37;13.93;;;;;;;;;;5054867;28;20403;-82
2023/12/09 10:34:38;;;;;;;27.17;15.73;;;;;;;;;;5054963;28;20903;-84
2023/12/09 10:37:06;;;;;;;27.80;15.07;;;;;;;;;;5055260;28;20501;-80
2023/12/09 10:39:33;;;;;;;26.83;14.60;;;;;;;;;;5054772;28;21084;-87
2023/12/09 10:42:05;;;;;;;18.67;12.63;;;;;;;;;;5055071;28;20437;-82
2023/12/09 10:44:34;;;;;;;20.43;12.60;;;;;;;;;;5054560;28;20414;-82
2023/12/09 10:47:00;;;;;;;20.50;10.03;;;;;;;;;;5054491;28;20470;-80
2023/12/09 10:49:26;;;;;;;16.53;9.57;;;;;;;;;;5054695;28;20472;-81
2023/12/09 10:51:52;;;;;;;19.03;9.90;;;;;;;;;;5054555;28;20409;-79
2023/12/09 10:54:18;;;;;;;15.60;9.13;;;;;;;;;;5054911;28;20401;-86
2023/12/09 10:56:44;;;;;;;20.50;9.70;;;;;;;;;;5054477;28;20917;-83
2023/12/09 10:59:11;;;;;;;15.53;8.83;;;;;;;;;;5054626;28;20450;-83
2023/12/09 11:01:37;;;;;;;14.90;9.50;;;;;;;;;;5036500;28;20409;-80
2023/12/09 11:04:03;;;;;;;18.00;9.90;;;;;;;;;;5054273;28;20407;-79
2023/12/09 11:06:33;;;;;;;15.13;8.47;;;;;;;;;;5036435;28;20461;-80
2023/12/09 11:08:59;;;;;;;15.20;9.10;;;;;;;;;;5053926;28;20418;-83
2023/12/09 11:11:26;;;;;;;16.77;9.50;;;;;;;;;;5054754;28;20437;-81
2023/12/09 11:13:54;;;;;;;18.10;9.83;;;;;;;;;;5053973;28;20543;-79
2023/12/09 11:16:24;;;;;;;16.20;8.40;;;;;;;;;;5054190;28;20414;-79
2023/12/09 11:18:51;;;;;;;20.37;9.17;;;;;;;;;;5036200;28;20458;-79
2023/12/09 11:21:17;;;;;;;12.70;7.20;;;;;;;;;;5053810;28;20408;-79
2023/12/09 11:23:45;;;;;;;16.47;9.00;;;;;;;;;;5053557;28;20419;-79
2023/12/09 11:26:14;;;;;;;14.90;8.00;;;;;;;;;;5053917;28;20441;-79
2023/12/09 11:28:55;;;;;;;19.77;9.60;;;;;;;;;;5053832;28;20816;-79
2023/12/09 11:31:21;;;;;;;14.13;9.00;;;;;;;;;;5053757;28;20421;-82
2023/12/09 11:33:47;;;;;;;10.30;6.90;;;;;;;;;;5053588;28;20772;-80
2023/12/09 11:36:13;;;;;;;19.20;9.17;;;;;;;;;;5053676;28;20951;-82
2023/12/09 11:38:39;;;;;;;22.17;9.87;;;;;;;;;;5053189;28;20417;-79
2023/12/09 11:41:06;;;;;;;14.07;8.70;;;;;;;;;;5053539;28;20442;-82
2023/12/09 11:43:41;;;;;;;16.13;8.00;;;;;;;;;;5053600;28;20767;-83
2023/12/09 11:46:07;;;;;;;14.37;8.47;;;;;;;;;;5053257;28;20501;-81
2023/12/09 11:48:33;;;;;;;17.20;9.20;;;;;;;;;;5053497;28;20580;-80
2023/12/09 11:51:02;;;;;;;12.90;8.03;;;;;;;;;;5053528;28;20411;-81
2023/12/09 11:53:28;;;;;;;16.13;9.50;;;;;;;;;;5053472;28;20422;-81
2023/12/09 11:55:54;;;;;;;14.27;8.70;;;;;;;;;;5053382;28;20413;-82
2023/12/09 11:58:20;;;;;;;13.80;8.23;;;;;;;;;;5054607;28;21178;-83
2023/12/09 12:00:46;;;;;;;17.23;9.60;;;;;;;;;;5054006;28;20407;-87
2023/12/09 12:03:12;;;;;;;19.00;9.77;;;;;;;;;;5052131;28;20437;-81
2023/12/09 12:05:38;;;;;;;18.53;8.03;;;;;;;;;;5053821;28;20422;-80
2023/12/09 12:08:04;;;;;;;15.63;10.30;;;;;;;;;;5051872;28;20829;-82
2023/12/09 12:10:30;;;;;;;15.50;10.10;;;;;;;;;;5052787;28;20410;-85
2023/12/09 12:12:56;;;;;;;14.43;7.67;;;;;;;;;;5034661;28;20476;-84
2023/12/09 12:15:22;;;;;;;18.33;8.10;;;;;;;;;;5051402;28;20768;-82
2023/12/09 12:17:48;;;;;;;13.80;8.13;;;;;;;;;;5054525;28;20427;-87
2023/12/09 12:20:14;;;;;;;18.80;8.93;;;;;;;;;;5058050;28;20832;-81
2023/12/09 12:22:41;;;;;;;20.43;9.40;;;;;;;;;;5056910;28;20426;-82
2023/12/09 12:25:09;;;;;;;16.70;9.20;;;;;;;;;;5055656;28;20437;-86
2023/12/09 12:27:35;;;;;;;17.80;7.40;;;;;;;;;;5037328;28;20557;-80
2023/12/09 12:30:03;;;;;;;14.33;7.90;;;;;;;;;;5053192;28;20418;-84
2023/12/09 12:32:29;;;;;;;13.50;7.50;;;;;;;;;;5050619;28;20426;-80
2023/12/09 12:34:55;;;;;;;12.43;7.50;;;;;;;;;;5055405;28;20412;-86
2023/12/09 12:37:21;;;;;;;13.27;7.60;;;;;;;;;;5052519;28;20420;-82
2023/12/09 12:39:47;;;;;;;15.97;7.70;;;;;;;;;;5042284;28;20490;-81
2023/12/09 12:42:13;;;;;;;13.87;7.20;;;;;;;;;;5052185;28;20886;-81
2023/12/09 12:44:41;;;;;;;14.33;7.20;;;;;;;;;;5052198;28;20909;-82
2023/12/09 12:47:07;;;;;;;15.90;7.80;;;;;;;;;;5052034;28;20468;-81
2023/12/09 12:49:37;;;;;;;12.47;7.60;;;;;;;;;;5034153;28;20421;-80
2023/12/09 12:52:03;;;;;;;16.93;8.53;;;;;;;;;;5052154;28;20404;-83
2023/12/09 12:54:29;;;;;;;12.20;7.70;;;;;;;;;;5051753;28;20422;-85
2023/12/09 12:56:55;;;;;;;12.70;7.70;;;;;;;;;;5041106;28;20400;-81
2023/12/09 12:59:21;;;;;;;11.00;6.70;;;;;;;;;;5052567;28;20899;-84
2023/12/09 13:01:47;;;;;;;16.10;7.10;;;;;;;;;;5052504;28;20465;-83
2023/12/09 13:04:13;;;;;;;13.00;8.43;;;;;;;;;;5052666;28;20488;-85
2023/12/09 13:06:40;;;;;;;10.87;6.23;;;;;;;;;;5052984;28;20499;-85
2023/12/09 13:09:08;;;;;;;17.67;7.63;;;;;;;;;;5036903;28;20429;-81
2023/12/09 13:11:34;;;;;;;13.43;8.20;;;;;;;;;;5055718;28;20415;-81
2023/12/09 13:14:00;;;;;;;12.77;7.20;;;;;;;;;;5053165;28;20472;-82
2023/12/09 13:16:27;;;;;;;12.07;6.67;;;;;;;;;;5052749;28;20437;-82
2023/12/09 13:18:53;;;;;;;12.60;5.27;;;;;;;;;;5055536;28;20420;-80
2023/12/09 13:21:19;;;;;;;12.37;6.13;;;;;;;;;;5055758;28;20517;-82
2023/12/09 13:23:48;;;;;;;9.70;6.07;;;;;;;;;;5055302;28;20904;-82
2023/12/09 13:26:14;;;;;;;9.90;6.03;;;;;;;;;;5055525;28;20405;-84
2023/12/09 13:28:40;;;;;;;10.90;6.47;;;;;;;;;;5055435;28;20562;-82
2023/12/09 13:31:06;;;;;;;9.37;5.70;;;;;;;;;;5055939;28;20411;-83
2023/12/09 13:33:32;;;;;;;9.73;7.17;;;;;;;;;;5037709;28;20422;-83
2023/12/09 13:35:58;;;;;;;10.23;6.13;;;;;;;;;;5033939;28;20456;-84
2023/12/09 13:38:24;;;;;;;13.13;7.10;;;;;;;;;;5034006;28;20532;-83
2023/12/09 13:40:50;;;;;;;12.93;7.17;;;;;;;;;;5035692;28;20444;-85
2023/12/09 13:43:16;;;;;;;10.93;6.40;;;;;;;;;;5042371;28;20850;-82
2023/12/09 13:45:42;;;;;;;12.97;7.00;;;;;;;;;;5053900;28;20416;-84
2023/12/09 13:48:09;;;;;;;14.93;7.67;;;;;;;;;;5055655;28;20908;-81
2023/12/09 13:50:39;;;;;;;11.67;7.33;;;;;;;;;;5055276;28;20514;-84
2023/12/09 13:53:07;;;;;;;12.00;6.40;;;;;;;;;;5054882;28;20466;-83
2023/12/09 13:55:33;;;;;;;15.30;7.43;;;;;;;;;;5037401;28;20424;-83
2023/12/09 13:57:59;;;;;;;14.90;8.83;;;;;;;;;;5037557;28;20768;-84
2023/12/09 14:00:25;;;;;;;19.73;8.20;;;;;;;;;;5054988;28;20412;-82
2023/12/09 14:02:51;;;;;;;12.57;7.17;;;;;;;;;;5037247;28;20416;-86
2023/12/09 14:05:17;;;;;;;12.30;7.73;;;;;;;;;;5037520;28;20818;-84
2023/12/09 14:07:43;;;;;;;12.82;7.80;;;;;;;;;;5054215;28;20455;-83
2023/12/09 14:10:09;;;;;;;12.30;8.40;;;;;;;;;;5054992;28;20182;-85
2023/12/09 14:12:35;;;;;;;9.73;7.60;;;;;;;;;;5054591;28;20462;-81
2023/12/09 14:15:01;;;;;;;11.73;7.63;;;;;;;;;;5054948;28;20419;-87
2023/12/09 14:17:27;;;;;;;13.77;7.90;;;;;;;;;;5054917;28;20765;-84